sensor_id;sensor_type;location;lat;lon;timestamp;temperature;humidity
7014;DHT22;3547;50.774;12.918;2023-03-25T00:02:15;8.60;1.00
7014;DHT22;3547;50.774;12.918;2023-03-25T00:04:42;8.60;1.00
7014;DHT22;3547;50.774;12.918;2023-03-25T00:07:08;8.70;1.00
7014;DHT22;3547;50.774;12.918;2023-03-25T00:09:35;8.70;1.00
7014;DHT22;3547;50.774;12.918;2023-03-25T00:12:01;8.70;1.00
7014;DHT22;3547;50.774;12.918;2023-03-25T00:14:27;8.60;1.00
7014;DHT22;3547;50.774;12.918;2023-03-25T00:16:53;8.70;1.00
7014;DHT22;3547;50.774;12.918;2023-03-25T00:19:19;8.60;1.00
7014;DHT22;3547;50.774;12.918;2023-03-25T00:21:48;8.60;1.00
7014;DHT22;3547;50.774;12.918;2023-03-25T00:24:16;8.60;1.00
7014;DHT22;3547;50.774;12.918;2023-03-25T00:26:46;8.60;1.00
7014;DHT22;3547;50.774;12.918;2023-03-25T00:29:14;8.70;1.00
7014;DHT22;3547;50.774;12.918;2023-03-25T00:31:41;8.70;1.00
7014;DHT22;3547;50.774;12.918;2023-03-25T00:34:08;8.60;1.00
7014;DHT22;3547;50.774;12.918;2023-03-25T00:36:35;8.60;1.00
7014;DHT22;3547;50.774;12.918;2023-03-25T00:39:03;8.60;1.00
7014;DHT22;3547;50.774;12.918;2023-03-25T00:41:30;8.60;1.00
7014;DHT22;3547;50.774;12.918;2023-03-25T00:43:58;8.60;1.00
7014;DHT22;3547;50.774;12.918;2023-03-25T00:46:25;8.60;1.00
7014;DHT22;3547;50.774;12.918;2023-03-25T00:48:52;8.60;1.00
7014;DHT22;3547;50.774;12.918;2023-03-25T00:51:23;8.60;1.00
7014;DHT22;3547;50.774;12.918;2023-03-25T00:53:52;8.60;1.00
7014;DHT22;3547;50.774;12.918;2023-03-25T00:56:21;8.70;1.00
7014;DHT22;3547;50.774;12.918;2023-03-25T00:58:51;8.70;1.00
7014;DHT22;3547;50.774;12.918;2023-03-25T01:01:20;8.70;1.00
7014;DHT22;3547;50.774;12.918;2023-03-25T01:03:53;8.70;1.00
7014;DHT22;3547;50.774;12.918;2023-03-25T01:06:28;8.70;1.00
7014;DHT22;3547;50.774;12.918;2023-03-25T01:08:56;8.70;1.00
7014;DHT22;3547;50.774;12.918;2023-03-25T01:11:28;8.80;1.00
7014;DHT22;3547;50.774;12.918;2023-03-25T01:13:56;8.80;1.00
7014;DHT22;3547;50.774;12.918;2023-03-25T01:16:24;8.70;1.00
7014;DHT22;3547;50.774;12.918;2023-03-25T01:18:50;8.70;1.00
7014;DHT22;3547;50.774;12.918;2023-03-25T01:21:17;8.80;1.00
7014;DHT22;3547;50.774;12.918;2023-03-25T01:23:43;8.80;1.00
7014;DHT22;3547;50.774;12.918;2023-03-25T01:26:32;8.80;1.00
7014;DHT22;3547;50.774;12.918;2023-03-25T01:28:58;8.80;1.00
7014;DHT22;3547;50.774;12.918;2023-03-25T01:31:25;8.90;1.00
7014;DHT22;3547;50.774;12.918;2023-03-25T01:33:55;8.90;1.00
7014;DHT22;3547;50.774;12.918;2023-03-25T01:36:23;8.80;1.00
7014;DHT22;3547;50.774;12.918;2023-03-25T01:38:50;8.90;1.00
7014;DHT22;3547;50.774;12.918;2023-03-25T01:41:16;8.90;1.00
7014;DHT22;3547;50.774;12.918;2023-03-25T01:44:07;8.90;1.00
7014;DHT22;3547;50.774;12.918;2023-03-25T01:46:34;8.90;1.00
7014;DHT22;3547;50.774;12.918;2023-03-25T01:49:05;9.00;1.00
7014;DHT22;3547;50.774;12.918;2023-03-25T01:51:35;9.00;1.00
7014;DHT22;3547;50.774;12.918;2023-03-25T01:54:03;9.00;1.00
7014;DHT22;3547;50.774;12.918;2023-03-25T01:56:32;9.00;1.00
7014;DHT22;3547;50.774;12.918;2023-03-25T01:59:02;9.00;1.00
7014;DHT22;3547;50.774;12.918;2023-03-25T02:01:30;9.00;1.00
7014;DHT22;3547;50.774;12.918;2023-03-25T02:03:57;9.00;1.00
7014;DHT22;3547;50.774;12.918;2023-03-25T02:06:44;9.00;1.00
7014;DHT22;3547;50.774;12.918;2023-03-25T02:09:15;8.90;1.00
7014;DHT22;3547;50.774;12.918;2023-03-25T02:11:42;8.80;1.00
7014;DHT22;3547;50.774;12.918;2023-03-25T02:14:14;8.80;1.00
7014;DHT22;3547;50.774;12.918;2023-03-25T02:27:58;8.60;1.00
7014;DHT22;3547;50.774;12.918;2023-03-25T02:30:45;8.50;1.00
7014;DHT22;3547;50.774;12.918;2023-03-25T02:33:33;8.50;1.00
7014;DHT22;3547;50.774;12.918;2023-03-25T02:39:37;8.50;1.00
7014;DHT22;3547;50.774;12.918;2023-03-25T02:47:22;8.50;99.90
7014;DHT22;3547;50.774;12.918;2023-03-25T02:49:57;8.40;1.00
7014;DHT22;3547;50.774;12.918;2023-03-25T02:52:37;8.40;1.00
7014;DHT22;3547;50.774;12.918;2023-03-25T02:55:09;8.40;1.00
7014;DHT22;3547;50.774;12.918;2023-03-25T02:57:39;8.40;1.00
7014;DHT22;3547;50.774;12.918;2023-03-25T03:00:09;8.40;1.00
7014;DHT22;3547;50.774;12.918;2023-03-25T03:03:05;8.40;1.00
7014;DHT22;3547;50.774;12.918;2023-03-25T03:05:34;8.40;1.00
7014;DHT22;3547;50.774;12.918;2023-03-25T03:13:50;8.50;1.00
7014;DHT22;3547;50.774;12.918;2023-03-25T03:27:25;8.50;99.90
7014;DHT22;3547;50.774;12.918;2023-03-25T03:30:06;8.50;1.00
7014;DHT22;3547;50.774;12.918;2023-03-25T03:32:49;8.50;1.00
7014;DHT22;3547;50.774;12.918;2023-03-25T03:37:48;8.40;99.90
7014;DHT22;3547;50.774;12.918;2023-03-25T03:40:18;8.50;1.00
7014;DHT22;3547;50.774;12.918;2023-03-25T03:42:54;8.50;1.00
7014;DHT22;3547;50.774;12.918;2023-03-25T03:45:28;8.40;1.00
7014;DHT22;3547;50.774;12.918;2023-03-25T03:47:57;8.50;1.00
7014;DHT22;3547;50.774;12.918;2023-03-25T03:50:29;8.40;99.90
7014;DHT22;3547;50.774;12.918;2023-03-25T03:53:05;8.50;1.00
7014;DHT22;3547;50.774;12.918;2023-03-25T03:55:51;8.40;99.90
7014;DHT22;3547;50.774;12.918;2023-03-25T03:58:25;8.40;99.90
7014;DHT22;3547;50.774;12.918;2023-03-25T04:00:58;8.40;99.90
7014;DHT22;3547;50.774;12.918;2023-03-25T04:03:33;8.40;99.90
7014;DHT22;3547;50.774;12.918;2023-03-25T04:06:33;8.40;99.90
7014;DHT22;3547;50.774;12.918;2023-03-25T04:09:07;8.40;99.90
7014;DHT22;3547;50.774;12.918;2023-03-25T04:11:39;8.40;99.90
7014;DHT22;3547;50.774;12.918;2023-03-25T04:14:08;8.30;99.90
7014;DHT22;3547;50.774;12.918;2023-03-25T04:16:35;8.30;99.90
7014;DHT22;3547;50.774;12.918;2023-03-25T04:19:05;8.40;99.90
7014;DHT22;3547;50.774;12.918;2023-03-25T04:21:32;8.40;99.90
7014;DHT22;3547;50.774;12.918;2023-03-25T04:24:01;8.40;99.90
7014;DHT22;3547;50.774;12.918;2023-03-25T04:29:40;8.30;1.00
7014;DHT22;3547;50.774;12.918;2023-03-25T04:32:10;8.20;1.00
7014;DHT22;3547;50.774;12.918;2023-03-25T04:34:37;8.00;1.00
7014;DHT22;3547;50.774;12.918;2023-03-25T04:37:06;7.80;1.00
7014;DHT22;3547;50.774;12.918;2023-03-25T04:39:32;7.70;1.00
7014;DHT22;3547;50.774;12.918;2023-03-25T04:41:59;7.60;1.00
7014;DHT22;3547;50.774;12.918;2023-03-25T04:44:29;7.50;1.00
7014;DHT22;3547;50.774;12.918;2023-03-25T04:47:01;7.50;1.00
7014;DHT22;3547;50.774;12.918;2023-03-25T04:52:54;7.30;1.00
7014;DHT22;3547;50.774;12.918;2023-03-25T04:55:25;7.20;1.00
7014;DHT22;3547;50.774;12.918;2023-03-25T04:57:53;7.30;1.00
7014;DHT22;3547;50.774;12.918;2023-03-25T05:00:21;7.20;1.00
7014;DHT22;3547;50.774;12.918;2023-03-25T05:02:53;7.20;1.00
7014;DHT22;3547;50.774;12.918;2023-03-25T05:05:22;7.30;1.00
7014;DHT22;3547;50.774;12.918;2023-03-25T05:07:53;7.20;1.00
7014;DHT22;3547;50.774;12.918;2023-03-25T05:18:10;7.10;1.00
7014;DHT22;3547;50.774;12.918;2023-03-25T05:20:40;7.10;1.00
7014;DHT22;3547;50.774;12.918;2023-03-25T05:23:07;7.00;1.00
7014;DHT22;3547;50.774;12.918;2023-03-25T05:25:46;6.90;1.00
7014;DHT22;3547;50.774;12.918;2023-03-25T05:28:13;6.80;1.00
7014;DHT22;3547;50.774;12.918;2023-03-25T05:30:40;6.70;1.00
7014;DHT22;3547;50.774;12.918;2023-03-25T05:33:09;6.70;1.00
7014;DHT22;3547;50.774;12.918;2023-03-25T05:35:36;6.70;1.00
7014;DHT22;3547;50.774;12.918;2023-03-25T05:38:04;6.70;1.00
7014;DHT22;3547;50.774;12.918;2023-03-25T05:40:30;6.60;1.00
7014;DHT22;3547;50.774;12.918;2023-03-25T05:42:58;6.60;99.90
7014;DHT22;3547;50.774;12.918;2023-03-25T05:45:24;6.50;99.90
7014;DHT22;3547;50.774;12.918;2023-03-25T05:47:50;6.50;99.90
7014;DHT22;3547;50.774;12.918;2023-03-25T05:50:36;6.50;99.90
7014;DHT22;3547;50.774;12.918;2023-03-25T05:53:18;6.60;99.90
7014;DHT22;3547;50.774;12.918;2023-03-25T05:55:47;6.60;99.90
7014;DHT22;3547;50.774;12.918;2023-03-25T05:58:17;6.60;99.90
7014;DHT22;3547;50.774;12.918;2023-03-25T06:00:44;6.70;1.00
7014;DHT22;3547;50.774;12.918;2023-03-25T06:03:11;6.80;1.00
7014;DHT22;3547;50.774;12.918;2023-03-25T06:05:38;6.80;99.90
7014;DHT22;3547;50.774;12.918;2023-03-25T06:08:04;6.80;99.90
7014;DHT22;3547;50.774;12.918;2023-03-25T06:10:40;6.90;99.90
7014;DHT22;3547;50.774;12.918;2023-03-25T06:13:06;7.00;99.90
7014;DHT22;3547;50.774;12.918;2023-03-25T06:15:32;7.00;99.90
7014;DHT22;3547;50.774;12.918;2023-03-25T06:18:04;7.10;99.90
7014;DHT22;3547;50.774;12.918;2023-03-25T06:20:30;7.20;99.90
7014;DHT22;3547;50.774;12.918;2023-03-25T06:22:56;7.30;1.00
7014;DHT22;3547;50.774;12.918;2023-03-25T06:25:22;7.50;1.00
7014;DHT22;3547;50.774;12.918;2023-03-25T06:27:49;7.60;1.00
7014;DHT22;3547;50.774;12.918;2023-03-25T06:30:18;7.80;1.00
7014;DHT22;3547;50.774;12.918;2023-03-25T06:32:45;7.90;1.00
7014;DHT22;3547;50.774;12.918;2023-03-25T06:35:16;7.90;1.00
7014;DHT22;3547;50.774;12.918;2023-03-25T06:37:48;8.00;1.00
7014;DHT22;3547;50.774;12.918;2023-03-25T06:40:14;7.90;1.00
7014;DHT22;3547;50.774;12.918;2023-03-25T06:42:40;7.90;1.00
7014;DHT22;3547;50.774;12.918;2023-03-25T06:45:07;7.70;1.00
7014;DHT22;3547;50.774;12.918;2023-03-25T06:47:33;7.70;1.00
7014;DHT22;3547;50.774;12.918;2023-03-25T06:50:00;7.60;1.00
7014;DHT22;3547;50.774;12.918;2023-03-25T06:52:26;7.60;1.00
7014;DHT22;3547;50.774;12.918;2023-03-25T06:54:52;7.60;1.00
7014;DHT22;3547;50.774;12.918;2023-03-25T06:57:18;7.70;1.00
7014;DHT22;3547;50.774;12.918;2023-03-25T06:59:44;7.80;1.00
7014;DHT22;3547;50.774;12.918;2023-03-25T07:02:14;7.90;1.00
7014;DHT22;3547;50.774;12.918;2023-03-25T07:04:41;8.10;1.00
7014;DHT22;3547;50.774;12.918;2023-03-25T07:07:08;8.20;1.00
7014;DHT22;3547;50.774;12.918;2023-03-25T07:09:34;8.20;1.00
7014;DHT22;3547;50.774;12.918;2023-03-25T07:12:00;8.10;1.00
7014;DHT22;3547;50.774;12.918;2023-03-25T07:14:26;8.10;1.00
7014;DHT22;3547;50.774;12.918;2023-03-25T07:16:53;8.10;1.00
7014;DHT22;3547;50.774;12.918;2023-03-25T07:19:19;8.30;1.00
7014;DHT22;3547;50.774;12.918;2023-03-25T07:24:37;8.40;1.00
7014;DHT22;3547;50.774;12.918;2023-03-25T07:27:03;8.40;1.00
7014;DHT22;3547;50.774;12.918;2023-03-25T07:29:32;8.40;1.00
7014;DHT22;3547;50.774;12.918;2023-03-25T07:32:12;8.10;1.00
7014;DHT22;3547;50.774;12.918;2023-03-25T07:34:38;7.90;1.00
7014;DHT22;3547;50.774;12.918;2023-03-25T07:37:06;8.00;1.00
7014;DHT22;3547;50.774;12.918;2023-03-25T07:39:36;7.80;1.00
7014;DHT22;3547;50.774;12.918;2023-03-25T07:42:05;7.70;1.00
7014;DHT22;3547;50.774;12.918;2023-03-25T07:44:32;7.80;1.00
7014;DHT22;3547;50.774;12.918;2023-03-25T07:47:01;7.80;1.00
7014;DHT22;3547;50.774;12.918;2023-03-25T07:49:28;7.50;1.00
7014;DHT22;3547;50.774;12.918;2023-03-25T07:51:54;7.50;1.00
7014;DHT22;3547;50.774;12.918;2023-03-25T07:54:20;7.60;1.00
7014;DHT22;3547;50.774;12.918;2023-03-25T07:56:49;7.50;1.00
7014;DHT22;3547;50.774;12.918;2023-03-25T07:59:19;7.60;1.00
7014;DHT22;3547;50.774;12.918;2023-03-25T08:01:45;7.70;1.00
7014;DHT22;3547;50.774;12.918;2023-03-25T08:04:11;7.70;1.00
7014;DHT22;3547;50.774;12.918;2023-03-25T08:06:39;7.90;1.00
7014;DHT22;3547;50.774;12.918;2023-03-25T08:09:07;8.00;1.00
7014;DHT22;3547;50.774;12.918;2023-03-25T08:11:33;7.90;1.00
7014;DHT22;3547;50.774;12.918;2023-03-25T08:13:59;7.90;1.00
7014;DHT22;3547;50.774;12.918;2023-03-25T08:16:34;8.00;1.00
7014;DHT22;3547;50.774;12.918;2023-03-25T08:19:06;8.20;1.00
7014;DHT22;3547;50.774;12.918;2023-03-25T08:21:50;8.40;1.00
7014;DHT22;3547;50.774;12.918;2023-03-25T08:24:16;8.40;1.00
7014;DHT22;3547;50.774;12.918;2023-03-25T08:26:43;8.40;1.00
7014;DHT22;3547;50.774;12.918;2023-03-25T08:29:09;8.30;1.00
7014;DHT22;3547;50.774;12.918;2023-03-25T08:31:44;8.40;1.00
7014;DHT22;3547;50.774;12.918;2023-03-25T08:34:13;8.30;1.00
7014;DHT22;3547;50.774;12.918;2023-03-25T08:36:39;8.40;1.00
7014;DHT22;3547;50.774;12.918;2023-03-25T08:39:06;8.30;1.00
7014;DHT22;3547;50.774;12.918;2023-03-25T08:41:42;8.40;99.90
7014;DHT22;3547;50.774;12.918;2023-03-25T08:44:10;8.40;1.00
7014;DHT22;3547;50.774;12.918;2023-03-25T08:46:36;8.60;1.00
7014;DHT22;3547;50.774;12.918;2023-03-25T08:49:03;8.80;1.00
7014;DHT22;3547;50.774;12.918;2023-03-25T08:51:30;8.80;99.90
7014;DHT22;3547;50.774;12.918;2023-03-25T08:53:58;8.90;1.00
7014;DHT22;3547;50.774;12.918;2023-03-25T08:56:42;8.90;1.00
7014;DHT22;3547;50.774;12.918;2023-03-25T08:59:09;8.80;99.90
7014;DHT22;3547;50.774;12.918;2023-03-25T09:01:36;8.90;1.00
7014;DHT22;3547;50.774;12.918;2023-03-25T09:04:02;9.00;99.90
7014;DHT22;3547;50.774;12.918;2023-03-25T09:06:28;9.00;1.00
7014;DHT22;3547;50.774;12.918;2023-03-25T09:08:54;9.00;99.90
7014;DHT22;3547;50.774;12.918;2023-03-25T09:11:21;8.90;99.90
7014;DHT22;3547;50.774;12.918;2023-03-25T09:13:48;8.80;99.90
7014;DHT22;3547;50.774;12.918;2023-03-25T09:16:14;9.00;99.90
7014;DHT22;3547;50.774;12.918;2023-03-25T09:24:32;9.10;99.90
7014;DHT22;3547;50.774;12.918;2023-03-25T09:27:00;9.30;1.00
7014;DHT22;3547;50.774;12.918;2023-03-25T09:29:27;9.50;99.90
7014;DHT22;3547;50.774;12.918;2023-03-25T09:31:54;9.60;1.00
7014;DHT22;3547;50.774;12.918;2023-03-25T09:34:23;9.50;99.90
7014;DHT22;3547;50.774;12.918;2023-03-25T09:39:31;9.70;99.90
7014;DHT22;3547;50.774;12.918;2023-03-25T09:44:50;9.90;99.90
7014;DHT22;3547;50.774;12.918;2023-03-25T09:47:28;10.00;99.90
7014;DHT22;3547;50.774;12.918;2023-03-25T09:50:01;10.00;99.90
7014;DHT22;3547;50.774;12.918;2023-03-25T09:52:35;9.70;99.90
7014;DHT22;3547;50.774;12.918;2023-03-25T09:55:10;9.40;99.90
7014;DHT22;3547;50.774;12.918;2023-03-25T09:57:45;9.20;99.90
7014;DHT22;3547;50.774;12.918;2023-03-25T10:00:21;9.30;99.90
7014;DHT22;3547;50.774;12.918;2023-03-25T10:03:13;9.20;99.90
7014;DHT22;3547;50.774;12.918;2023-03-25T10:17:24;9.40;99.90
7014;DHT22;3547;50.774;12.918;2023-03-25T10:20:19;10.10;99.90
7014;DHT22;3547;50.774;12.918;2023-03-25T10:25:26;11.70;99.90
7014;DHT22;3547;50.774;12.918;2023-03-25T10:27:55;11.20;99.90
7014;DHT22;3547;50.774;12.918;2023-03-25T10:36:08;11.60;99.90
7014;DHT22;3547;50.774;12.918;2023-03-25T10:38:52;11.60;99.90
7014;DHT22;3547;50.774;12.918;2023-03-25T10:41:25;11.90;99.90
7014;DHT22;3547;50.774;12.918;2023-03-25T10:43:53;11.60;99.90
7014;DHT22;3547;50.774;12.918;2023-03-25T10:46:32;11.20;99.90
7014;DHT22;3547;50.774;12.918;2023-03-25T10:49:10;11.40;99.90
7014;DHT22;3547;50.774;12.918;2023-03-25T10:51:38;11.30;99.90
7014;DHT22;3547;50.774;12.918;2023-03-25T10:54:07;11.40;99.90
7014;DHT22;3547;50.774;12.918;2023-03-25T11:03:21;10.80;99.90
7014;DHT22;3547;50.774;12.918;2023-03-25T11:05:54;10.60;99.90
7014;DHT22;3547;50.774;12.918;2023-03-25T11:08:25;10.70;99.90
7014;DHT22;3547;50.774;12.918;2023-03-25T11:10:53;11.10;99.90
7014;DHT22;3547;50.774;12.918;2023-03-25T11:13:28;11.10;99.90
7014;DHT22;3547;50.774;12.918;2023-03-25T11:19:25;11.10;99.90
7014;DHT22;3547;50.774;12.918;2023-03-25T11:25:11;11.50;99.90
7014;DHT22;3547;50.774;12.918;2023-03-25T11:28:18;11.50;99.90
7014;DHT22;3547;50.774;12.918;2023-03-25T11:31:12;11.30;99.90
7014;DHT22;3547;50.774;12.918;2023-03-25T11:33:47;11.00;99.90
7014;DHT22;3547;50.774;12.918;2023-03-25T11:36:28;11.50;99.90
7014;DHT22;3547;50.774;12.918;2023-03-25T11:39:00;12.50;99.90
7014;DHT22;3547;50.774;12.918;2023-03-25T11:41:34;13.20;99.90
7014;DHT22;3547;50.774;12.918;2023-03-25T11:44:02;13.90;99.90
7014;DHT22;3547;50.774;12.918;2023-03-25T11:46:31;14.00;99.90
7014;DHT22;3547;50.774;12.918;2023-03-25T11:49:09;14.40;99.90
7014;DHT22;3547;50.774;12.918;2023-03-25T11:51:36;13.90;99.90
7014;DHT22;3547;50.774;12.918;2023-03-25T11:54:07;13.30;99.90
7014;DHT22;3547;50.774;12.918;2023-03-25T11:56:40;12.60;99.90
7014;DHT22;3547;50.774;12.918;2023-03-25T11:59:34;12.10;99.90
7014;DHT22;3547;50.774;12.918;2023-03-25T12:02:13;11.90;99.90
7014;DHT22;3547;50.774;12.918;2023-03-25T12:05:08;11.90;99.90
7014;DHT22;3547;50.774;12.918;2023-03-25T12:07:42;12.20;99.90
7014;DHT22;3547;50.774;12.918;2023-03-25T12:10:26;12.40;99.90
7014;DHT22;3547;50.774;12.918;2023-03-25T12:13:08;12.40;99.90
7014;DHT22;3547;50.774;12.918;2023-03-25T12:16:03;11.80;99.90
7014;DHT22;3547;50.774;12.918;2023-03-25T12:19:14;11.60;99.90
7014;DHT22;3547;50.774;12.918;2023-03-25T12:22:07;11.40;99.90
7014;DHT22;3547;50.774;12.918;2023-03-25T12:25:00;11.80;99.90
7014;DHT22;3547;50.774;12.918;2023-03-25T12:49:26;11.40;99.90
7014;DHT22;3547;50.774;12.918;2023-03-25T12:52:00;11.70;99.90
7014;DHT22;3547;50.774;12.918;2023-03-25T13:08:00;12.20;99.90
7014;DHT22;3547;50.774;12.918;2023-03-25T13:10:33;12.40;99.90
7014;DHT22;3547;50.774;12.918;2023-03-25T13:13:03;12.50;99.90
7014;DHT22;3547;50.774;12.918;2023-03-25T13:15:44;12.40;99.90
7014;DHT22;3547;50.774;12.918;2023-03-25T13:18:19;12.60;99.90
7014;DHT22;3547;50.774;12.918;2023-03-25T13:23:44;12.50;99.90
7014;DHT22;3547;50.774;12.918;2023-03-25T13:26:26;12.40;99.90
7014;DHT22;3547;50.774;12.918;2023-03-25T13:28:59;12.50;99.90
7014;DHT22;3547;50.774;12.918;2023-03-25T13:31:33;12.50;99.90
7014;DHT22;3547;50.774;12.918;2023-03-25T13:36:42;12.90;99.90
7014;DHT22;3547;50.774;12.918;2023-03-25T13:39:19;13.20;99.90
7014;DHT22;3547;50.774;12.918;2023-03-25T13:42:05;12.90;99.90
7014;DHT22;3547;50.774;12.918;2023-03-25T13:44:36;13.10;99.90
7014;DHT22;3547;50.774;12.918;2023-03-25T13:47:24;12.60;99.90
7014;DHT22;3547;50.774;12.918;2023-03-25T13:50:01;12.10;99.90
7014;DHT22;3547;50.774;12.918;2023-03-25T13:52:37;11.00;99.90
7014;DHT22;3547;50.774;12.918;2023-03-25T13:55:12;10.30;99.90
7014;DHT22;3547;50.774;12.918;2023-03-25T14:11:58;8.90;99.90
7014;DHT22;3547;50.774;12.918;2023-03-25T14:14:28;9.00;99.90
7014;DHT22;3547;50.774;12.918;2023-03-25T14:16:58;9.00;99.90
7014;DHT22;3547;50.774;12.918;2023-03-25T14:19:33;9.50;99.90
7014;DHT22;3547;50.774;12.918;2023-03-25T14:22:12;9.90;99.90
7014;DHT22;3547;50.774;12.918;2023-03-25T14:24:39;10.30;99.90
7014;DHT22;3547;50.774;12.918;2023-03-25T14:27:11;10.30;99.90
7014;DHT22;3547;50.774;12.918;2023-03-25T14:29:42;10.10;99.90
7014;DHT22;3547;50.774;12.918;2023-03-25T14:37:50;9.90;99.90
7014;DHT22;3547;50.774;12.918;2023-03-25T14:48:53;9.70;99.90
7014;DHT22;3547;50.774;12.918;2023-03-25T14:54:19;9.70;99.90
7014;DHT22;3547;50.774;12.918;2023-03-25T14:59:53;9.40;99.90
7014;DHT22;3547;50.774;12.918;2023-03-25T15:02:27;9.00;99.90
7014;DHT22;3547;50.774;12.918;2023-03-25T15:12:58;9.80;99.90
7014;DHT22;3547;50.774;12.918;2023-03-25T15:15:50;9.70;99.90
7014;DHT22;3547;50.774;12.918;2023-03-25T15:21:13;9.70;99.90
7014;DHT22;3547;50.774;12.918;2023-03-25T15:26:38;9.50;99.90
7014;DHT22;3547;50.774;12.918;2023-03-25T15:35:03;9.40;99.90
7014;DHT22;3547;50.774;12.918;2023-03-25T15:46:22;10.90;99.90
7014;DHT22;3547;50.774;12.918;2023-03-25T15:54:29;11.70;99.90
7014;DHT22;3547;50.774;12.918;2023-03-25T15:57:15;11.70;99.90
7014;DHT22;3547;50.774;12.918;2023-03-25T16:00:01;12.10;99.90
7014;DHT22;3547;50.774;12.918;2023-03-25T16:05:30;12.40;99.90
7014;DHT22;3547;50.774;12.918;2023-03-25T16:08:04;11.60;99.90
7014;DHT22;3547;50.774;12.918;2023-03-25T16:10:50;11.00;99.90
7014;DHT22;3547;50.774;12.918;2023-03-25T16:13:17;10.70;99.90
7014;DHT22;3547;50.774;12.918;2023-03-25T16:15:55;12.00;99.90
7014;DHT22;3547;50.774;12.918;2023-03-25T16:18:23;13.40;99.90
7014;DHT22;3547;50.774;12.918;2023-03-25T16:20:55;14.10;99.90
7014;DHT22;3547;50.774;12.918;2023-03-25T16:23:22;13.90;99.90
7014;DHT22;3547;50.774;12.918;2023-03-25T16:25:50;14.80;99.90
7014;DHT22;3547;50.774;12.918;2023-03-25T16:28:27;15.00;99.90
7014;DHT22;3547;50.774;12.918;2023-03-25T16:31:00;14.90;99.90
7014;DHT22;3547;50.774;12.918;2023-03-25T16:33:45;14.80;99.90
7014;DHT22;3547;50.774;12.918;2023-03-25T16:36:15;14.90;99.90
7014;DHT22;3547;50.774;12.918;2023-03-25T16:38:42;14.80;99.90
7014;DHT22;3547;50.774;12.918;2023-03-25T16:41:12;14.50;99.90
7014;DHT22;3547;50.774;12.918;2023-03-25T16:43:40;13.00;99.90
7014;DHT22;3547;50.774;12.918;2023-03-25T16:46:11;12.60;99.90
7014;DHT22;3547;50.774;12.918;2023-03-25T16:48:40;11.60;99.90
7014;DHT22;3547;50.774;12.918;2023-03-25T16:51:12;10.50;99.90
7014;DHT22;3547;50.774;12.918;2023-03-25T16:53:39;10.10;99.90
7014;DHT22;3547;50.774;12.918;2023-03-25T16:56:21;9.80;99.90
7014;DHT22;3547;50.774;12.918;2023-03-25T16:59:01;9.80;99.90
7014;DHT22;3547;50.774;12.918;2023-03-25T17:01:35;9.70;99.90
7014;DHT22;3547;50.774;12.918;2023-03-25T17:04:12;9.60;99.90
7014;DHT22;3547;50.774;12.918;2023-03-25T17:06:41;9.40;99.90
7014;DHT22;3547;50.774;12.918;2023-03-25T17:09:24;9.30;99.90
7014;DHT22;3547;50.774;12.918;2023-03-25T17:12:00;9.20;99.90
7014;DHT22;3547;50.774;12.918;2023-03-25T17:14:31;8.90;99.90
7014;DHT22;3547;50.774;12.918;2023-03-25T17:17:32;8.90;99.90
7014;DHT22;3547;50.774;12.918;2023-03-25T17:20:03;8.80;99.90
7014;DHT22;3547;50.774;12.918;2023-03-25T17:22:34;8.70;99.90
7014;DHT22;3547;50.774;12.918;2023-03-25T17:30:59;8.30;99.90
7014;DHT22;3547;50.774;12.918;2023-03-25T17:35:55;8.10;99.90
7014;DHT22;3547;50.774;12.918;2023-03-25T17:38:31;8.00;99.90
7014;DHT22;3547;50.774;12.918;2023-03-25T17:41:03;8.10;99.90
7014;DHT22;3547;50.774;12.918;2023-03-25T17:43:33;8.00;99.90
7014;DHT22;3547;50.774;12.918;2023-03-25T17:46:33;8.00;99.90
7014;DHT22;3547;50.774;12.918;2023-03-25T17:49:00;8.00;99.90
7014;DHT22;3547;50.774;12.918;2023-03-25T17:51:28;7.90;99.90
7014;DHT22;3547;50.774;12.918;2023-03-25T17:53:55;7.90;99.90
7014;DHT22;3547;50.774;12.918;2023-03-25T17:56:26;7.80;99.90
7014;DHT22;3547;50.774;12.918;2023-03-25T17:59:05;7.80;99.90
7014;DHT22;3547;50.774;12.918;2023-03-25T18:01:35;7.80;99.90
7014;DHT22;3547;50.774;12.918;2023-03-25T18:04:02;7.90;99.90
7014;DHT22;3547;50.774;12.918;2023-03-25T18:06:29;7.90;99.90
7014;DHT22;3547;50.774;12.918;2023-03-25T18:08:56;7.90;99.90
7014;DHT22;3547;50.774;12.918;2023-03-25T18:11:22;7.90;99.90
7014;DHT22;3547;50.774;12.918;2023-03-25T18:13:49;7.90;99.90
7014;DHT22;3547;50.774;12.918;2023-03-25T18:16:17;8.00;99.90
7014;DHT22;3547;50.774;12.918;2023-03-25T18:18:43;8.10;99.90
7014;DHT22;3547;50.774;12.918;2023-03-25T18:21:11;8.10;99.90
7014;DHT22;3547;50.774;12.918;2023-03-25T18:23:40;8.10;99.90
7014;DHT22;3547;50.774;12.918;2023-03-25T18:26:14;8.10;99.90
7014;DHT22;3547;50.774;12.918;2023-03-25T18:28:41;8.00;99.90
7014;DHT22;3547;50.774;12.918;2023-03-25T18:31:13;8.10;99.90
7014;DHT22;3547;50.774;12.918;2023-03-25T18:33:43;8.00;99.90
7014;DHT22;3547;50.774;12.918;2023-03-25T18:36:11;8.00;99.90
7014;DHT22;3547;50.774;12.918;2023-03-25T18:38:37;7.90;99.90
7014;DHT22;3547;50.774;12.918;2023-03-25T18:41:08;7.90;99.90
7014;DHT22;3547;50.774;12.918;2023-03-25T18:43:35;7.80;99.90
7014;DHT22;3547;50.774;12.918;2023-03-25T18:46:01;7.70;99.90
7014;DHT22;3547;50.774;12.918;2023-03-25T18:48:30;7.70;99.90
7014;DHT22;3547;50.774;12.918;2023-03-25T18:50:59;7.70;99.90
7014;DHT22;3547;50.774;12.918;2023-03-25T18:53:27;7.70;99.90
7014;DHT22;3547;50.774;12.918;2023-03-25T18:55:56;7.70;99.90
7014;DHT22;3547;50.774;12.918;2023-03-25T18:58:29;7.70;99.90
7014;DHT22;3547;50.774;12.918;2023-03-25T19:00:58;7.80;99.90
7014;DHT22;3547;50.774;12.918;2023-03-25T19:03:25;7.80;99.90
7014;DHT22;3547;50.774;12.918;2023-03-25T19:06:09;7.80;99.90
7014;DHT22;3547;50.774;12.918;2023-03-25T19:08:36;7.90;99.90
7014;DHT22;3547;50.774;12.918;2023-03-25T19:11:03;7.90;99.90
7014;DHT22;3547;50.774;12.918;2023-03-25T19:13:29;7.90;99.90
7014;DHT22;3547;50.774;12.918;2023-03-25T19:15:56;7.90;99.90
7014;DHT22;3547;50.774;12.918;2023-03-25T19:18:24;7.90;99.90
7014;DHT22;3547;50.774;12.918;2023-03-25T19:20:57;7.90;99.90
7014;DHT22;3547;50.774;12.918;2023-03-25T19:23:24;8.00;99.90
7014;DHT22;3547;50.774;12.918;2023-03-25T19:25:51;7.90;99.90
7014;DHT22;3547;50.774;12.918;2023-03-25T19:28:20;7.90;99.90
7014;DHT22;3547;50.774;12.918;2023-03-25T19:30:49;8.00;99.90
7014;DHT22;3547;50.774;12.918;2023-03-25T19:33:16;7.70;99.90
7014;DHT22;3547;50.774;12.918;2023-03-25T19:35:49;7.30;1.00
7014;DHT22;3547;50.774;12.918;2023-03-25T19:38:16;7.10;1.00
7014;DHT22;3547;50.774;12.918;2023-03-25T19:40:49;7.00;1.00
7014;DHT22;3547;50.774;12.918;2023-03-25T19:43:16;6.90;1.00
7014;DHT22;3547;50.774;12.918;2023-03-25T19:45:42;6.90;1.00
7014;DHT22;3547;50.774;12.918;2023-03-25T19:48:08;7.00;1.00
7014;DHT22;3547;50.774;12.918;2023-03-25T19:50:34;7.00;1.00
7014;DHT22;3547;50.774;12.918;2023-03-25T19:53:02;7.10;1.00
7014;DHT22;3547;50.774;12.918;2023-03-25T19:55:31;7.10;1.00
7014;DHT22;3547;50.774;12.918;2023-03-25T19:57:57;7.10;1.00
7014;DHT22;3547;50.774;12.918;2023-03-25T20:00:24;7.20;1.00
7014;DHT22;3547;50.774;12.918;2023-03-25T20:02:53;7.20;1.00
7014;DHT22;3547;50.774;12.918;2023-03-25T20:05:22;7.20;1.00
7014;DHT22;3547;50.774;12.918;2023-03-25T20:07:50;7.30;1.00
7014;DHT22;3547;50.774;12.918;2023-03-25T20:10:19;7.30;1.00
7014;DHT22;3547;50.774;12.918;2023-03-25T20:12:46;7.30;1.00
7014;DHT22;3547;50.774;12.918;2023-03-25T20:15:14;7.30;1.00